LFJL/ETZ METAR and TAF weather

Enter ICAO airport designator
Station Type Date Time Source
LFJL METAR 2023/01/29 18:00 UTC NOAA

LFJL 291800Z AUTO 25004KT CAVOK M01/M04 Q1027 NOSIG


Station Type Date Time Source
LFJL Decoded METAR 2023/01/29 18:00 UTC NOAA

Metz-Nancy-Lorraine, France (LFJL) 48-59N 006-15E
Jan 29, 2023 - 01:00 PM EST / 2023.01.29 1800 UTC
Wind: from the WSW (250 degrees) at 5 MPH (4 KT):0
Visibility: greater than 7 mile(s):0
Temperature: 30 F (-1 C)
Windchill: 24 F (-4 C):1
Dew Point: 24 F (-4 C)
Relative Humidity: 80%
Pressure (altimeter): 30.33 in. Hg (1027 hPa)
ob: LFJL 291800Z AUTO 25004KT CAVOK M01/M04 Q1027 NOSIG
cycle: 18

Station Type Date Time Source
LFJL TAF 2023/01/29 18:21 UTC NOAA

TAF LFJL 291700Z 2918/3018 VRB03KT CAVOK
BECMG 2921/2923 22010KT
BECMG 2923/3001 OVC006
TEMPO 3003/3012 3000 -SN OVC003 PROB30
TEMPO 3003/3006 -FZDZ PROB40
TEMPO 3012/3016 4000 -DZ OVC003

Example: see airport list